General Aviation Weather

Text Reports

Enter one or more of the following location identifiers separated by a space:

Zip Code, Four-Character ICAO or Three-Character IATA airport codes.

METAR - Aviation Routine Weather Report
ETHC - Celle,
Updated at 1:20 PM GMT on October 21, 2014 (3:20 PM CEST):
METAR ETHC 211320Z 19008KT 9999 FEW013 SCT026 BKN070 14/10 Q1000 BLU BLU BECMG WHT
TAF - Terminal Area Forecast
ETHC - Celle,
Updated at 1:20 PM GMT on October 21, 2014 (3:20 PM CEST):
No TAF is currently available for this location.
Decoded:
No decoded TAF is available.
PIREP - Pilot Weather Report
ETHC - Celle,
Updated at 1:20 PM GMT on October 21, 2014 (3:20 PM CEST):
No PIREP is currently available for this location.
AIRMET - Airmens Meteorological Information
ETHC - Celle,
Updated at 1:20 PM GMT on October 21, 2014 (3:20 PM CEST):
No AIRMET is currently available for this location.
SIGMET - Significant Meteorological Information
ETHC - Celle,
Updated at 1:20 PM GMT on October 21, 2014 (3:20 PM CEST):
No SIGMET is currently available for this location.
NOTAM - Notice to Airmen
ETHC - Celle,
Updated at 1:20 PM GMT on October 21, 2014 (3:20 PM CEST):
No NOTAM is currently available for this location.
Forecast Area
ETHC - Celle,
Updated at 1:20 PM GMT on October 21, 2014 (3:20 PM CEST):
No NOTAM is currently available for this location.
Aviation Weather Maps